createdAt,value
2023-04-08T00:01:30.763Z,77.30
2023-04-08T00:03:57.424Z,77.15
2023-04-08T00:06:24.022Z,77.04
2023-04-08T00:08:50.572Z,77.05
2023-04-08T00:11:17.139Z,77.30
2023-04-08T00:13:43.567Z,77.07
2023-04-08T00:16:10.123Z,77.00
2023-04-08T00:18:38.090Z,77.35
2023-04-08T00:21:04.892Z,77.42
2023-04-08T00:23:31.555Z,77.44
2023-04-08T00:25:58.157Z,77.69
2023-04-08T00:28:24.615Z,77.51
2023-04-08T00:30:52.579Z,77.44
2023-04-08T00:33:19.176Z,77.49
2023-04-08T00:35:46.288Z,77.57
2023-04-08T00:38:12.800Z,77.35
2023-04-08T00:40:39.366Z,77.55
2023-04-08T00:43:06.011Z,77.69
2023-04-08T00:45:33.737Z,77.60
2023-04-08T00:48:01.409Z,77.31
2023-04-08T00:50:27.935Z,77.45
2023-04-08T00:52:54.376Z,77.47
2023-04-08T00:55:20.795Z,76.99
2023-04-08T00:57:48.086Z,77.19
2023-04-08T01:00:15.732Z,77.65
2023-04-08T01:02:56.892Z,77.37
2023-04-08T01:06:00.119Z,78.12
2023-04-08T01:08:29.891Z,77.33
2023-04-08T01:11:01.036Z,77.93
2023-04-08T01:13:32.468Z,78.03
2023-04-08T01:15:59.405Z,77.94
2023-04-08T01:18:26.864Z,77.61
2023-04-08T01:20:55.210Z,77.77
2023-04-08T01:23:30.675Z,77.53
2023-04-08T01:25:57.478Z,77.63
2023-04-08T01:28:27.018Z,78.10
2023-04-08T01:30:56.500Z,77.82
2023-04-08T01:33:24.188Z,77.82
2023-04-08T01:35:52.320Z,77.77
2023-04-08T01:38:20.989Z,77.55
2023-04-08T01:40:48.663Z,77.45
2023-04-08T01:43:17.118Z,77.81
2023-04-08T01:45:45.873Z,78.01
2023-04-08T01:48:15.904Z,77.95
2023-04-08T01:50:43.839Z,77.46
2023-04-08T01:53:11.087Z,77.65
2023-04-08T01:55:40.366Z,77.90
2023-04-08T01:58:11.318Z,77.55
2023-04-08T02:00:41.032Z,77.67
2023-04-08T02:03:11.490Z,77.92
2023-04-08T02:05:39.113Z,77.46
2023-04-08T02:08:05.815Z,77.69
2023-04-08T02:10:32.377Z,77.55
2023-04-08T02:12:58.986Z,77.47
2023-04-08T02:15:28.993Z,78.36
2023-04-08T02:18:00.783Z,78.16
2023-04-08T02:20:38.799Z,78.98
2023-04-08T02:23:19.422Z,79.25
2023-04-08T02:25:47.522Z,78.73
2023-04-08T02:28:15.735Z,78.97
2023-04-08T02:30:45.703Z,79.10
2023-04-08T02:33:14.623Z,78.56
2023-04-08T02:35:42.132Z,78.79
2023-04-08T02:38:10.734Z,78.81
2023-04-08T02:40:37.654Z,79.07
2023-04-08T02:43:04.273Z,79.31
2023-04-08T02:45:33.055Z,79.07
2023-04-08T02:48:00.661Z,78.72
2023-04-08T02:50:27.436Z,78.80
2023-04-08T02:52:53.888Z,78.97
2023-04-08T02:55:20.456Z,79.22
2023-04-08T02:57:48.326Z,79.53
2023-04-08T03:00:15.821Z,79.34
2023-04-08T03:02:42.529Z,78.97
2023-04-08T03:05:09.727Z,79.20
2023-04-08T03:07:36.806Z,79.07
2023-04-08T03:10:03.837Z,79.24
2023-04-08T03:12:31.503Z,78.84
2023-04-08T03:14:58.002Z,78.19
2023-04-08T03:17:24.612Z,78.45
2023-04-08T03:19:51.245Z,79.01
2023-04-08T03:22:17.785Z,78.81
2023-04-08T03:24:44.251Z,79.10
2023-04-08T03:27:12.438Z,78.86
2023-04-08T03:29:38.904Z,79.02
2023-04-08T03:32:05.644Z,79.09
2023-04-08T03:34:34.265Z,79.24
2023-04-08T03:37:01.026Z,79.13
2023-04-08T03:39:27.429Z,78.81
2023-04-08T03:41:53.936Z,78.64
2023-04-08T03:44:20.449Z,78.83
2023-04-08T03:46:46.844Z,79.08
2023-04-08T03:49:13.265Z,78.56
2023-04-08T03:51:39.727Z,78.79
2023-04-08T03:54:08.180Z,78.83
2023-04-08T03:56:34.689Z,78.92
2023-04-08T03:59:01.223Z,79.41
2023-04-08T04:01:27.752Z,79.51
2023-04-08T04:03:54.344Z,79.54
2023-04-08T04:06:21.142Z,79.37
2023-04-08T04:08:47.889Z,79.14
2023-04-08T04:11:14.583Z,79.21
2023-04-08T04:13:41.010Z,79.30
2023-04-08T04:16:07.750Z,79.67
2023-04-08T04:18:34.474Z,79.93
2023-04-08T04:21:01.090Z,79.71
2023-04-08T04:23:27.550Z,79.91
2023-04-08T04:25:54.106Z,79.79
2023-04-08T04:28:20.630Z,79.91
2023-04-08T04:30:47.063Z,80.75
2023-04-08T04:33:13.521Z,80.85
2023-04-08T04:35:42.159Z,80.88
2023-04-08T04:38:12.345Z,80.44
2023-04-08T04:40:39.516Z,80.77
2023-04-08T04:43:05.997Z,80.98
2023-04-08T04:45:32.520Z,81.01
2023-04-08T04:47:58.992Z,81.54
2023-04-08T04:50:25.658Z,81.67
2023-04-08T04:52:52.133Z,81.57
2023-04-08T04:55:18.758Z,81.64
2023-04-08T04:57:45.417Z,82.37
2023-04-08T05:00:12.205Z,82.35
2023-04-08T05:02:38.886Z,82.14
2023-04-08T05:05:05.957Z,82.28
2023-04-08T05:07:36.497Z,82.41
2023-04-08T05:10:04.431Z,82.12
2023-04-08T05:12:31.056Z,82.10
2023-04-08T05:15:00.848Z,82.81
2023-04-08T05:17:27.336Z,82.47
2023-04-08T05:19:53.845Z,82.65
2023-04-08T05:22:20.397Z,82.47
2023-04-08T05:24:47.050Z,82.53
2023-04-08T05:27:13.493Z,82.67
2023-04-08T05:29:40.001Z,82.51
2023-04-08T05:32:06.629Z,83.01
2023-04-08T05:34:33.125Z,83.24
2023-04-08T05:36:59.575Z,83.33
2023-04-08T05:39:26.423Z,83.21
2023-04-08T05:41:52.957Z,83.48
2023-04-08T05:44:19.392Z,83.53
2023-04-08T05:46:45.951Z,83.77
2023-04-08T05:49:12.610Z,83.34
2023-04-08T05:51:39.616Z,83.31
2023-04-08T05:54:05.984Z,83.50
2023-04-08T05:56:32.357Z,82.98
2023-04-08T05:58:59.060Z,83.17
2023-04-08T06:01:26.340Z,83.20
2023-04-08T06:03:53.187Z,83.36
2023-04-08T06:06:19.762Z,83.19
2023-04-08T06:08:47.149Z,83.19
2023-04-08T06:11:13.805Z,82.97
2023-04-08T06:13:40.364Z,83.16
2023-04-08T06:16:14.331Z,84.08
2023-04-08T06:18:40.974Z,82.87
2023-04-08T06:21:10.809Z,83.05
2023-04-08T06:23:37.725Z,82.79
2023-04-08T06:26:04.922Z,82.61
2023-04-08T06:28:32.142Z,82.65
2023-04-08T06:30:59.169Z,82.95
2023-04-08T06:33:25.901Z,82.73
2023-04-08T06:35:52.442Z,82.58
2023-04-08T06:38:19.203Z,82.46
2023-04-08T06:40:45.783Z,82.42
2023-04-08T06:43:12.160Z,82.20
2023-04-08T06:45:38.585Z,82.10
2023-04-08T06:48:06.697Z,82.31
2023-04-08T06:50:33.331Z,82.04
2023-04-08T06:53:00.355Z,82.08
2023-04-08T06:55:27.058Z,81.73
2023-04-08T06:57:53.621Z,81.59
2023-04-08T07:00:20.560Z,81.33
2023-04-08T07:02:47.138Z,81.54
2023-04-08T07:05:13.757Z,81.75
2023-04-08T07:07:40.268Z,81.59
2023-04-08T07:10:08.848Z,81.67
2023-04-08T07:12:37.406Z,81.36
2023-04-08T07:15:04.123Z,81.50
2023-04-08T07:17:30.968Z,81.38
2023-04-08T07:19:57.720Z,81.22
2023-04-08T07:22:24.124Z,81.48
2023-04-08T07:24:54.323Z,81.37
2023-04-08T07:27:21.752Z,81.18
2023-04-08T07:29:53.632Z,81.47
2023-04-08T07:32:20.792Z,80.22
2023-04-08T07:34:47.410Z,79.50
2023-04-08T07:37:13.956Z,79.69
2023-04-08T07:39:40.423Z,80.11
2023-04-08T07:42:06.830Z,79.98
2023-04-08T07:44:33.214Z,79.78
2023-04-08T07:46:59.605Z,79.87
2023-04-08T07:49:26.164Z,78.42
2023-04-08T07:51:53.107Z,78.05
2023-04-08T07:54:19.637Z,78.34
2023-04-08T07:56:46.296Z,78.39
2023-04-08T07:59:12.882Z,78.47
2023-04-08T08:01:39.395Z,78.34
2023-04-08T08:04:06.069Z,78.41
2023-04-08T08:06:32.641Z,78.87
2023-04-08T08:08:59.865Z,78.50
2023-04-08T08:11:29.419Z,78.70
2023-04-08T08:13:55.845Z,77.71
2023-04-08T08:16:22.840Z,77.89
2023-04-08T08:18:49.384Z,77.52
2023-04-08T08:21:15.963Z,77.55
2023-04-08T08:23:42.631Z,77.75
2023-04-08T08:26:10.515Z,77.55
2023-04-08T08:28:37.778Z,77.10
2023-04-08T08:31:05.884Z,76.81
2023-04-08T08:33:33.284Z,77.51
2023-04-08T08:36:00.079Z,76.71
2023-04-08T08:38:27.112Z,76.39
2023-04-08T08:40:57.593Z,76.20
2023-04-08T08:43:24.465Z,76.18
2023-04-08T08:45:51.311Z,75.65
2023-04-08T08:48:17.902Z,76.13
2023-04-08T08:50:44.445Z,75.81
2023-04-08T08:53:11.050Z,75.46
2023-04-08T08:56:05.721Z,76.19
2023-04-08T08:58:28.444Z,75.91
2023-04-08T09:00:55.104Z,76.26
2023-04-08T09:03:23.013Z,75.79
2023-04-08T09:05:53.998Z,76.06
2023-04-08T09:08:35.356Z,76.65
2023-04-08T09:11:22.112Z,76.25
2023-04-08T09:13:48.788Z,75.37
2023-04-08T09:16:18.294Z,75.28
2023-04-08T09:18:47.051Z,74.72
2023-04-08T09:21:14.722Z,74.85
2023-04-08T09:23:45.807Z,75.16
2023-04-08T09:26:17.080Z,74.51
2023-04-08T09:28:57.582Z,73.61
2023-04-08T09:31:27.823Z,72.36
2023-04-08T09:33:55.355Z,72.46
2023-04-08T09:36:22.056Z,70.74
2023-04-08T09:38:49.044Z,70.53
2023-04-08T09:41:17.311Z,70.35
2023-04-08T09:43:52.209Z,69.28
2023-04-08T09:46:45.548Z,69.24
2023-04-08T09:49:44.718Z,68.91
2023-04-08T09:52:15.660Z,67.18
2023-04-08T09:54:45.492Z,68.05
2023-04-08T09:57:21.934Z,67.63
2023-04-08T10:00:04.240Z,67.57
2023-04-08T10:02:39.282Z,66.66
2023-04-08T10:05:08.403Z,66.60
2023-04-08T10:07:36.294Z,67.07
2023-04-08T10:10:03.942Z,67.40
2023-04-08T10:12:30.709Z,67.41
2023-04-08T10:15:24.037Z,68.37
2023-04-08T10:17:51.681Z,67.98
2023-04-08T10:20:36.470Z,68.59
2023-04-08T10:23:04.041Z,67.68
2023-04-08T10:25:36.043Z,67.60
2023-04-08T10:28:11.698Z,68.83
2023-04-08T10:30:38.075Z,67.82
2023-04-08T10:33:12.238Z,68.50
2023-04-08T10:35:42.710Z,68.36
2023-04-08T10:38:09.288Z,68.38
2023-04-08T10:40:38.986Z,68.74
2023-04-08T10:43:06.067Z,68.79
2023-04-08T10:45:32.967Z,68.68
2023-04-08T10:48:31.900Z,69.21
2023-04-08T10:51:00.894Z,68.66
2023-04-08T10:53:28.287Z,68.85
2023-04-08T10:56:03.232Z,69.10
2023-04-08T10:58:30.315Z,69.95
2023-04-08T11:01:08.475Z,70.95
2023-04-08T11:03:37.087Z,70.19
2023-04-08T11:06:04.344Z,69.91
2023-04-08T11:08:34.989Z,70.36
2023-04-08T11:11:05.534Z,70.18
2023-04-08T11:13:33.300Z,69.98
2023-04-08T11:16:00.596Z,70.00
2023-04-08T11:18:27.361Z,69.68
2023-04-08T11:20:54.285Z,69.94
2023-04-08T11:23:22.822Z,70.36
2023-04-08T11:25:50.781Z,70.29
2023-04-08T11:28:18.271Z,70.22
2023-04-08T11:30:44.773Z,69.87
2023-04-08T11:33:13.165Z,70.13
2023-04-08T11:35:43.959Z,70.86
2023-04-08T11:38:11.638Z,69.88
2023-04-08T11:40:38.564Z,69.39
2023-04-08T11:43:15.407Z,70.30
2023-04-08T11:45:42.729Z,68.93
2023-04-08T11:48:14.042Z,69.06
2023-04-08T11:50:41.859Z,68.23
2023-04-08T11:53:21.931Z,69.16
2023-04-08T11:55:49.149Z,68.05
2023-04-08T11:58:15.857Z,68.31
2023-04-08T12:00:43.617Z,69.40
2023-04-08T12:03:10.909Z,69.58
2023-04-08T12:05:37.771Z,69.07
2023-04-08T12:08:04.319Z,69.83
2023-04-08T12:10:31.165Z,69.91
2023-04-08T12:12:57.600Z,70.92
2023-04-08T12:15:24.043Z,70.50
2023-04-08T12:17:50.512Z,70.35
2023-04-08T12:20:17.294Z,69.54
2023-04-08T12:22:43.802Z,69.80
2023-04-08T12:25:10.335Z,70.07
2023-04-08T12:27:36.802Z,69.97
2023-04-08T12:30:04.158Z,70.04
2023-04-08T12:32:30.794Z,69.64
2023-04-08T12:34:57.323Z,68.98
2023-04-08T12:37:24.183Z,69.07
2023-04-08T12:39:50.607Z,69.37
2023-04-08T12:42:17.152Z,68.83
2023-04-08T12:44:43.687Z,68.65
2023-04-08T12:47:10.337Z,68.44
2023-04-08T12:49:48.626Z,68.16
2023-04-08T12:52:16.055Z,67.99
2023-04-08T12:54:42.919Z,68.12
2023-04-08T12:57:09.357Z,67.80
2023-04-08T12:59:35.978Z,67.73
2023-04-08T13:02:02.515Z,67.92
2023-04-08T13:04:29.059Z,67.85
2023-04-08T13:06:56.376Z,68.26
2023-04-08T13:09:22.932Z,67.61
2023-04-08T13:11:49.524Z,68.02
2023-04-08T13:14:16.394Z,67.55
2023-04-08T13:16:42.855Z,67.11
2023-04-08T13:19:09.335Z,66.67
2023-04-08T13:21:35.743Z,67.15
2023-04-08T13:24:02.370Z,67.62
2023-04-08T13:26:28.912Z,67.83
2023-04-08T13:28:57.697Z,67.68
2023-04-08T13:31:24.982Z,67.57
2023-04-08T13:33:51.648Z,68.06
2023-04-08T13:36:18.100Z,67.43
2023-04-08T13:38:46.195Z,67.54
2023-04-08T13:41:12.756Z,67.30
2023-04-08T13:43:39.162Z,67.34
2023-04-08T13:46:05.754Z,67.17
2023-04-08T13:48:32.256Z,67.12
2023-04-08T13:50:58.649Z,67.22
2023-04-08T13:53:25.135Z,67.35
2023-04-08T13:55:55.064Z,67.50
2023-04-08T13:58:24.150Z,67.35
2023-04-08T14:00:54.234Z,67.20
2023-04-08T14:03:20.833Z,68.12
2023-04-08T14:05:47.655Z,68.58
2023-04-08T14:08:14.199Z,69.75
2023-04-08T14:10:42.135Z,69.90
2023-04-08T14:13:09.250Z,70.28
2023-04-08T14:15:36.160Z,70.22
2023-04-08T14:18:02.914Z,70.55
2023-04-08T14:20:29.851Z,70.17
2023-04-08T14:22:56.681Z,70.08
2023-04-08T14:25:23.712Z,70.29
2023-04-08T14:27:57.985Z,70.28
2023-04-08T14:30:25.334Z,70.58
2023-04-08T14:32:52.050Z,70.02
2023-04-08T14:35:18.556Z,69.87
2023-04-08T14:37:45.173Z,69.73
2023-04-08T14:40:12.144Z,69.72
2023-04-08T14:42:38.563Z,69.77
2023-04-08T14:45:05.412Z,70.53
2023-04-08T14:47:31.918Z,70.23
2023-04-08T14:49:58.363Z,69.84
2023-04-08T14:52:24.940Z,69.81
2023-04-08T14:54:52.701Z,69.40
2023-04-08T14:57:20.068Z,69.56
2023-04-08T14:59:46.572Z,69.86
2023-04-08T15:02:13.261Z,70.21
2023-04-08T15:04:39.870Z,70.01
2023-04-08T15:07:06.712Z,69.68
2023-04-08T15:09:33.380Z,69.21
2023-04-08T15:12:00.017Z,69.40
2023-04-08T15:14:26.697Z,69.89
2023-04-08T15:16:53.356Z,70.42
2023-04-08T15:19:20.216Z,70.15
2023-04-08T15:21:47.344Z,69.93
2023-04-08T15:24:14.082Z,70.19
2023-04-08T15:26:41.089Z,70.40
2023-04-08T15:29:07.906Z,70.81
2023-04-08T15:31:35.288Z,70.57
2023-04-08T15:34:03.492Z,71.02
2023-04-08T15:36:30.756Z,71.23
2023-04-08T15:38:57.226Z,71.38
2023-04-08T15:41:24.043Z,71.53
2023-04-08T15:43:53.089Z,71.84
2023-04-08T15:46:25.785Z,72.19
2023-04-08T15:48:52.577Z,71.50
2023-04-08T15:51:20.262Z,72.01
2023-04-08T15:53:47.140Z,72.59
2023-04-08T15:56:18.029Z,72.57
2023-04-08T15:58:46.342Z,72.56
2023-04-08T16:01:13.302Z,72.54
2023-04-08T16:03:39.818Z,72.54
2023-04-08T16:06:06.632Z,72.68
2023-04-08T16:08:34.660Z,72.78
2023-04-08T16:11:02.720Z,73.11
2023-04-08T16:13:30.178Z,72.59
2023-04-08T16:15:58.171Z,72.42
2023-04-08T16:18:25.204Z,72.12
2023-04-08T16:20:51.751Z,72.44
2023-04-08T16:23:18.301Z,72.23
2023-04-08T16:25:45.360Z,72.65
2023-04-08T16:28:12.405Z,72.72
2023-04-08T16:30:38.974Z,73.00
2023-04-08T16:33:06.162Z,72.80
2023-04-08T16:35:32.814Z,72.60
2023-04-08T16:37:59.505Z,72.61
2023-04-08T16:40:26.227Z,72.63
2023-04-08T16:42:53.370Z,72.69
2023-04-08T16:45:19.857Z,72.30
2023-04-08T16:47:46.581Z,72.44
2023-04-08T16:50:13.133Z,72.51
2023-04-08T16:52:39.869Z,72.66
2023-04-08T16:55:06.810Z,72.36
2023-04-08T16:57:33.369Z,72.65
2023-04-08T16:59:59.783Z,72.90
2023-04-08T17:02:26.484Z,73.10
2023-04-08T17:04:53.055Z,73.12
2023-04-08T17:07:19.519Z,72.97
2023-04-08T17:09:49.666Z,73.80
2023-04-08T17:12:16.301Z,73.76
2023-04-08T17:14:42.858Z,73.50
2023-04-08T17:17:09.396Z,73.52
2023-04-08T17:19:36.693Z,73.63
2023-04-08T17:22:03.280Z,73.24
2023-04-08T17:24:29.878Z,73.86
2023-04-08T17:26:59.989Z,73.77
2023-04-08T17:29:26.449Z,74.20
2023-04-08T17:31:53.220Z,73.93
2023-04-08T17:34:19.673Z,73.94
2023-04-08T17:36:46.260Z,74.22
2023-04-08T17:39:12.749Z,74.17
2023-04-08T17:41:40.703Z,73.73
2023-04-08T17:44:07.813Z,73.62
2023-04-08T17:46:34.260Z,73.74
2023-04-08T17:49:00.729Z,73.93
2023-04-08T17:51:28.714Z,73.96
2023-04-08T17:53:55.227Z,73.85
2023-04-08T17:56:23.159Z,73.52
2023-04-08T17:58:49.572Z,73.89
2023-04-08T18:01:16.110Z,73.80
2023-04-08T18:03:42.615Z,73.44
2023-04-08T18:06:09.220Z,73.53
2023-04-08T18:08:35.768Z,73.64
2023-04-08T18:11:05.826Z,73.97
2023-04-08T18:13:32.704Z,73.52
2023-04-08T18:15:59.628Z,73.74
2023-04-08T18:18:26.028Z,73.34
2023-04-08T18:20:52.582Z,73.28
2023-04-08T18:23:19.002Z,73.32
2023-04-08T18:25:50.114Z,73.86
2023-04-08T18:28:16.535Z,73.39
2023-04-08T18:30:43.330Z,73.48
2023-04-08T18:33:09.772Z,73.34
2023-04-08T18:35:36.871Z,73.65
2023-04-08T18:38:03.401Z,73.41
2023-04-08T18:40:31.159Z,73.72
2023-04-08T18:43:01.881Z,73.66
2023-04-08T18:45:29.277Z,73.78
2023-04-08T18:47:55.918Z,73.58
2023-04-08T18:50:22.788Z,73.81
2023-04-08T18:52:49.787Z,73.80
2023-04-08T18:55:16.615Z,74.18
2023-04-08T18:57:43.123Z,74.02
2023-04-08T19:00:09.848Z,74.00
2023-04-08T19:02:36.338Z,74.05
2023-04-08T19:05:02.862Z,74.19
2023-04-08T19:07:29.300Z,74.33
2023-04-08T19:09:57.629Z,74.23
2023-04-08T19:12:24.586Z,74.67
2023-04-08T19:14:51.139Z,74.01
2023-04-08T19:17:17.617Z,74.62
2023-04-08T19:19:44.098Z,74.43
2023-04-08T19:22:10.659Z,74.36
2023-04-08T19:24:37.691Z,74.45
2023-04-08T19:27:04.412Z,74.34
2023-04-08T19:29:33.576Z,74.95
2023-04-08T19:32:01.578Z,74.56
2023-04-08T19:34:28.154Z,74.82
2023-04-08T19:36:54.669Z,75.04
2023-04-08T19:39:21.226Z,75.14
2023-04-08T19:41:48.113Z,75.12
2023-04-08T19:44:14.644Z,75.11
2023-04-08T19:46:41.210Z,75.11
2023-04-08T19:49:07.862Z,75.15
2023-04-08T19:51:34.298Z,75.39
2023-04-08T19:54:00.732Z,75.43
2023-04-08T19:56:27.820Z,75.47
2023-04-08T19:58:54.485Z,75.45
2023-04-08T20:01:21.195Z,75.31
2023-04-08T20:03:52.193Z,75.17
2023-04-08T20:06:19.580Z,75.40
2023-04-08T20:08:46.365Z,75.32
2023-04-08T20:11:13.777Z,75.54
2023-04-08T20:13:40.425Z,75.63
2023-04-08T20:16:07.625Z,75.68
2023-04-08T20:18:34.337Z,75.56
2023-04-08T20:21:01.058Z,75.70
2023-04-08T20:23:28.452Z,75.78
2023-04-08T20:25:55.102Z,75.79
2023-04-08T20:28:21.616Z,75.91
2023-04-08T20:30:48.162Z,75.95
2023-04-08T20:33:14.619Z,75.81
2023-04-08T20:35:41.385Z,75.58
2023-04-08T20:38:07.956Z,76.16
2023-04-08T20:40:34.346Z,75.67
2023-04-08T20:43:01.035Z,75.80
2023-04-08T20:45:28.215Z,76.03
2023-04-08T20:47:55.586Z,75.92
2023-04-08T20:50:22.106Z,75.78
2023-04-08T20:52:48.576Z,75.86
2023-04-08T20:55:15.490Z,75.95
2023-04-08T20:57:42.098Z,75.77
2023-04-08T21:00:09.600Z,75.60
2023-04-08T21:02:36.362Z,75.91
2023-04-08T21:05:03.243Z,75.99
2023-04-08T21:07:30.374Z,75.98
2023-04-08T21:09:56.861Z,75.95
2023-04-08T21:12:23.293Z,75.97
2023-04-08T21:14:50.807Z,76.11
2023-04-08T21:17:17.475Z,76.10
2023-04-08T21:19:43.920Z,76.11
2023-04-08T21:22:10.465Z,76.40
2023-04-08T21:24:38.009Z,76.51
2023-04-08T21:27:04.509Z,76.40
2023-04-08T21:29:31.045Z,76.66
2023-04-08T21:31:57.539Z,76.54
2023-04-08T21:34:24.023Z,76.90
2023-04-08T21:36:50.827Z,76.95
2023-04-08T21:39:17.529Z,76.74
2023-04-08T21:41:43.956Z,76.93
2023-04-08T21:44:10.495Z,77.35
2023-04-08T21:46:36.967Z,77.50
2023-04-08T21:49:03.372Z,77.38
2023-04-08T21:51:29.937Z,77.78
2023-04-08T21:53:56.386Z,77.74
2023-04-08T21:56:24.484Z,77.74
2023-04-08T21:58:51.265Z,77.91
2023-04-08T22:01:18.044Z,77.76
2023-04-08T22:03:44.882Z,77.95
2023-04-08T22:06:19.173Z,78.04
2023-04-08T22:08:52.395Z,77.90
2023-04-08T22:11:19.111Z,78.13
2023-04-08T22:13:45.596Z,78.09
2023-04-08T22:16:12.172Z,78.34
2023-04-08T22:18:38.618Z,78.30
2023-04-08T22:21:05.186Z,78.80
2023-04-08T22:23:31.761Z,78.19
2023-04-08T22:25:58.311Z,78.63
2023-04-08T22:28:24.774Z,78.64
2023-04-08T22:30:51.412Z,78.71
2023-04-08T22:33:17.964Z,78.50
2023-04-08T22:35:44.521Z,78.69
2023-04-08T22:38:11.573Z,78.65
2023-04-08T22:40:38.246Z,78.82
2023-04-08T22:43:04.680Z,78.83
2023-04-08T22:45:31.329Z,78.89
2023-04-08T22:47:57.850Z,78.72
2023-04-08T22:50:24.507Z,78.57
2023-04-08T22:52:51.075Z,78.65
2023-04-08T22:55:17.518Z,78.65
2023-04-08T22:57:43.966Z,78.89
2023-04-08T23:00:11.328Z,78.70
2023-04-08T23:02:38.967Z,78.88
2023-04-08T23:05:06.094Z,78.74
2023-04-08T23:07:32.601Z,78.64
2023-04-08T23:09:59.221Z,78.49
2023-04-08T23:12:25.744Z,78.61
2023-04-08T23:14:52.192Z,78.34
2023-04-08T23:17:18.660Z,78.31
2023-04-08T23:19:45.091Z,78.61
2023-04-08T23:22:11.518Z,78.33
2023-04-08T23:24:37.966Z,78.46
2023-04-08T23:27:04.400Z,78.75
2023-04-08T23:29:31.479Z,78.86
2023-04-08T23:31:57.984Z,78.79
2023-04-08T23:34:24.462Z,78.95
2023-04-08T23:36:50.920Z,78.75
2023-04-08T23:39:17.442Z,78.88
2023-04-08T23:41:43.866Z,79.06
2023-04-08T23:44:10.418Z,79.08
2023-04-08T23:46:37.017Z,79.07
2023-04-08T23:49:03.570Z,79.17
2023-04-08T23:51:30.059Z,79.14
2023-04-08T23:53:56.436Z,79.08
2023-04-08T23:56:22.958Z,79.20
2023-04-08T23:58:49.544Z,79.00
